sensor_id;sensor_type;location;lat;lon;timestamp;temperature;humidity
285;DHT22;127;48.770;9.212;2023-01-23T00:01:41;0.90;1.00
285;DHT22;127;48.770;9.212;2023-01-23T00:04:12;0.90;1.00
285;DHT22;127;48.770;9.212;2023-01-23T00:06:43;0.80;1.00
285;DHT22;127;48.770;9.212;2023-01-23T00:09:15;0.80;1.00
285;DHT22;127;48.770;9.212;2023-01-23T00:11:43;0.70;1.00
285;DHT22;127;48.770;9.212;2023-01-23T00:14:12;0.70;1.00
285;DHT22;127;48.770;9.212;2023-01-23T00:16:41;0.70;1.00
285;DHT22;127;48.770;9.212;2023-01-23T00:19:09;0.70;1.00
285;DHT22;127;48.770;9.212;2023-01-23T00:21:38;0.70;1.00
285;DHT22;127;48.770;9.212;2023-01-23T00:24:10;0.70;1.00
285;DHT22;127;48.770;9.212;2023-01-23T00:26:39;0.80;1.00
285;DHT22;127;48.770;9.212;2023-01-23T00:29:08;0.90;1.00
285;DHT22;127;48.770;9.212;2023-01-23T00:31:40;0.80;1.00
285;DHT22;127;48.770;9.212;2023-01-23T00:34:11;0.80;1.00
285;DHT22;127;48.770;9.212;2023-01-23T00:36:42;0.80;1.00
285;DHT22;127;48.770;9.212;2023-01-23T00:39:16;0.80;1.00
285;DHT22;127;48.770;9.212;2023-01-23T00:41:45;0.70;1.00
285;DHT22;127;48.770;9.212;2023-01-23T00:44:14;0.70;1.00
285;DHT22;127;48.770;9.212;2023-01-23T00:46:43;0.70;1.00
285;DHT22;127;48.770;9.212;2023-01-23T00:49:12;0.60;1.00
285;DHT22;127;48.770;9.212;2023-01-23T00:51:42;0.60;1.00
285;DHT22;127;48.770;9.212;2023-01-23T00:54:11;0.70;1.00
285;DHT22;127;48.770;9.212;2023-01-23T00:56:42;0.60;1.00
285;DHT22;127;48.770;9.212;2023-01-23T00:59:11;0.60;1.00
285;DHT22;127;48.770;9.212;2023-01-23T01:01:39;0.60;1.00
285;DHT22;127;48.770;9.212;2023-01-23T01:04:08;0.50;1.00
285;DHT22;127;48.770;9.212;2023-01-23T01:06:37;0.60;1.00
285;DHT22;127;48.770;9.212;2023-01-23T01:09:05;0.70;1.00
285;DHT22;127;48.770;9.212;2023-01-23T01:11:34;0.70;1.00
285;DHT22;127;48.770;9.212;2023-01-23T01:14:05;0.50;1.00
285;DHT22;127;48.770;9.212;2023-01-23T01:16:34;0.60;1.00
285;DHT22;127;48.770;9.212;2023-01-23T01:19:03;0.60;1.00
285;DHT22;127;48.770;9.212;2023-01-23T01:21:32;0.50;1.00
285;DHT22;127;48.770;9.212;2023-01-23T01:24:00;0.30;1.00
285;DHT22;127;48.770;9.212;2023-01-23T01:26:29;0.40;1.00
285;DHT22;127;48.770;9.212;2023-01-23T01:28:58;0.40;1.00
285;DHT22;127;48.770;9.212;2023-01-23T01:31:29;0.40;1.00
285;DHT22;127;48.770;9.212;2023-01-23T01:33:57;0.30;1.00
285;DHT22;127;48.770;9.212;2023-01-23T01:36:26;0.30;1.00
285;DHT22;127;48.770;9.212;2023-01-23T01:38:55;0.40;1.00
285;DHT22;127;48.770;9.212;2023-01-23T01:41:23;0.50;1.00
285;DHT22;127;48.770;9.212;2023-01-23T01:43:52;0.40;1.00
285;DHT22;127;48.770;9.212;2023-01-23T01:46:23;0.50;1.00
285;DHT22;127;48.770;9.212;2023-01-23T01:49:03;0.60;1.00
285;DHT22;127;48.770;9.212;2023-01-23T01:51:37;0.60;1.00
285;DHT22;127;48.770;9.212;2023-01-23T01:54:10;0.50;1.00
285;DHT22;127;48.770;9.212;2023-01-23T01:56:55;0.60;1.00
285;DHT22;127;48.770;9.212;2023-01-23T01:59:32;0.50;1.00
285;DHT22;127;48.770;9.212;2023-01-23T02:02:05;0.30;1.00
285;DHT22;127;48.770;9.212;2023-01-23T02:04:43;0.40;1.00
285;DHT22;127;48.770;9.212;2023-01-23T02:07:18;0.50;1.00
285;DHT22;127;48.770;9.212;2023-01-23T02:09:48;0.60;1.00
285;DHT22;127;48.770;9.212;2023-01-23T02:12:17;0.70;1.00
285;DHT22;127;48.770;9.212;2023-01-23T02:14:46;0.80;1.00
285;DHT22;127;48.770;9.212;2023-01-23T02:17:14;0.70;1.00
285;DHT22;127;48.770;9.212;2023-01-23T02:19:50;0.80;1.00
285;DHT22;127;48.770;9.212;2023-01-23T02:22:29;0.80;1.00
285;DHT22;127;48.770;9.212;2023-01-23T02:25:05;0.90;1.00
285;DHT22;127;48.770;9.212;2023-01-23T02:27:38;0.90;99.90
285;DHT22;127;48.770;9.212;2023-01-23T02:30:08;1.00;99.90
285;DHT22;127;48.770;9.212;2023-01-23T02:32:36;1.00;99.90
285;DHT22;127;48.770;9.212;2023-01-23T02:35:10;1.00;99.90
285;DHT22;127;48.770;9.212;2023-01-23T02:37:41;1.00;99.90
285;DHT22;127;48.770;9.212;2023-01-23T02:40:12;1.00;99.90
285;DHT22;127;48.770;9.212;2023-01-23T02:42:44;1.00;99.90
285;DHT22;127;48.770;9.212;2023-01-23T02:45:13;0.90;99.90
285;DHT22;127;48.770;9.212;2023-01-23T02:47:41;1.00;99.90
285;DHT22;127;48.770;9.212;2023-01-23T02:50:10;0.80;99.90
285;DHT22;127;48.770;9.212;2023-01-23T02:52:39;0.90;99.90
285;DHT22;127;48.770;9.212;2023-01-23T02:55:08;0.80;99.90
285;DHT22;127;48.770;9.212;2023-01-23T02:57:37;0.80;99.90
285;DHT22;127;48.770;9.212;2023-01-23T03:00:11;0.80;99.90
285;DHT22;127;48.770;9.212;2023-01-23T03:02:46;0.90;99.90
285;DHT22;127;48.770;9.212;2023-01-23T03:05:16;0.90;99.90
285;DHT22;127;48.770;9.212;2023-01-23T03:07:44;0.90;99.90
285;DHT22;127;48.770;9.212;2023-01-23T03:10:13;1.00;99.90
285;DHT22;127;48.770;9.212;2023-01-23T03:12:42;0.90;99.90
285;DHT22;127;48.770;9.212;2023-01-23T03:15:13;0.90;99.90
285;DHT22;127;48.770;9.212;2023-01-23T03:17:42;0.90;99.90
285;DHT22;127;48.770;9.212;2023-01-23T03:20:11;1.00;99.90
285;DHT22;127;48.770;9.212;2023-01-23T03:22:40;1.00;99.90
285;DHT22;127;48.770;9.212;2023-01-23T03:25:09;0.90;99.90
285;DHT22;127;48.770;9.212;2023-01-23T03:27:38;0.80;99.90
285;DHT22;127;48.770;9.212;2023-01-23T03:30:09;0.80;99.90
285;DHT22;127;48.770;9.212;2023-01-23T03:32:41;0.90;99.90
285;DHT22;127;48.770;9.212;2023-01-23T03:35:10;1.00;99.90
285;DHT22;127;48.770;9.212;2023-01-23T03:37:41;1.00;99.90
285;DHT22;127;48.770;9.212;2023-01-23T03:40:15;0.90;99.90
285;DHT22;127;48.770;9.212;2023-01-23T03:42:56;0.90;99.90
285;DHT22;127;48.770;9.212;2023-01-23T03:45:25;0.70;99.90
285;DHT22;127;48.770;9.212;2023-01-23T03:47:56;0.70;99.90
285;DHT22;127;48.770;9.212;2023-01-23T03:50:25;0.70;99.90
285;DHT22;127;48.770;9.212;2023-01-23T03:52:53;0.70;99.90
285;DHT22;127;48.770;9.212;2023-01-23T03:55:22;0.70;99.90
285;DHT22;127;48.770;9.212;2023-01-23T03:57:51;0.70;99.90
285;DHT22;127;48.770;9.212;2023-01-23T04:00:20;0.60;99.90
285;DHT22;127;48.770;9.212;2023-01-23T04:02:48;0.70;99.90
285;DHT22;127;48.770;9.212;2023-01-23T04:05:20;0.80;99.90
285;DHT22;127;48.770;9.212;2023-01-23T04:07:48;0.80;99.90
285;DHT22;127;48.770;9.212;2023-01-23T04:10:17;0.80;99.90
285;DHT22;127;48.770;9.212;2023-01-23T04:12:45;0.70;99.90
285;DHT22;127;48.770;9.212;2023-01-23T04:15:14;0.70;99.90
285;DHT22;127;48.770;9.212;2023-01-23T04:17:43;0.80;99.90
285;DHT22;127;48.770;9.212;2023-01-23T04:20:12;0.80;99.90
285;DHT22;127;48.770;9.212;2023-01-23T04:22:43;0.80;99.90
285;DHT22;127;48.770;9.212;2023-01-23T04:25:12;0.70;99.90
285;DHT22;127;48.770;9.212;2023-01-23T04:27:40;0.70;99.90
285;DHT22;127;48.770;9.212;2023-01-23T04:30:10;0.70;99.90
285;DHT22;127;48.770;9.212;2023-01-23T04:32:39;0.50;99.90
285;DHT22;127;48.770;9.212;2023-01-23T04:35:08;0.60;99.90
285;DHT22;127;48.770;9.212;2023-01-23T04:37:37;0.70;99.90
285;DHT22;127;48.770;9.212;2023-01-23T04:40:09;0.70;99.90
285;DHT22;127;48.770;9.212;2023-01-23T04:42:38;0.70;99.90
285;DHT22;127;48.770;9.212;2023-01-23T04:45:08;0.80;99.90
285;DHT22;127;48.770;9.212;2023-01-23T04:47:37;0.80;99.90
285;DHT22;127;48.770;9.212;2023-01-23T04:50:06;0.80;99.90
285;DHT22;127;48.770;9.212;2023-01-23T04:52:35;0.80;99.90
285;DHT22;127;48.770;9.212;2023-01-23T04:55:08;0.80;99.90
285;DHT22;127;48.770;9.212;2023-01-23T04:57:36;0.80;99.90
285;DHT22;127;48.770;9.212;2023-01-23T05:00:06;0.70;99.90
285;DHT22;127;48.770;9.212;2023-01-23T05:02:35;0.80;99.90
285;DHT22;127;48.770;9.212;2023-01-23T05:05:05;0.80;99.90
285;DHT22;127;48.770;9.212;2023-01-23T05:07:34;0.70;99.90
285;DHT22;127;48.770;9.212;2023-01-23T05:10:04;0.50;99.90
285;DHT22;127;48.770;9.212;2023-01-23T05:12:35;0.40;99.90
285;DHT22;127;48.770;9.212;2023-01-23T05:15:04;0.60;99.90
285;DHT22;127;48.770;9.212;2023-01-23T05:17:33;0.70;1.00
285;DHT22;127;48.770;9.212;2023-01-23T05:20:03;0.70;99.90
285;DHT22;127;48.770;9.212;2023-01-23T05:22:32;0.60;99.90
285;DHT22;127;48.770;9.212;2023-01-23T05:25:00;0.80;99.90
285;DHT22;127;48.770;9.212;2023-01-23T05:27:29;0.90;99.90
285;DHT22;127;48.770;9.212;2023-01-23T05:30:00;0.90;99.90
285;DHT22;127;48.770;9.212;2023-01-23T05:32:29;1.00;99.90
285;DHT22;127;48.770;9.212;2023-01-23T05:34:57;1.00;99.90
285;DHT22;127;48.770;9.212;2023-01-23T05:37:26;0.90;99.90
285;DHT22;127;48.770;9.212;2023-01-23T05:39:55;0.60;99.90
285;DHT22;127;48.770;9.212;2023-01-23T05:42:23;0.70;99.90
285;DHT22;127;48.770;9.212;2023-01-23T05:44:52;0.70;99.90
285;DHT22;127;48.770;9.212;2023-01-23T05:47:23;0.80;99.90
285;DHT22;127;48.770;9.212;2023-01-23T05:49:52;0.80;99.90
285;DHT22;127;48.770;9.212;2023-01-23T05:52:21;0.90;99.90
285;DHT22;127;48.770;9.212;2023-01-23T05:54:49;0.80;99.90
285;DHT22;127;48.770;9.212;2023-01-23T05:57:18;0.80;99.90
285;DHT22;127;48.770;9.212;2023-01-23T05:59:46;0.80;99.90
285;DHT22;127;48.770;9.212;2023-01-23T06:02:15;0.80;99.90
285;DHT22;127;48.770;9.212;2023-01-23T06:04:48;0.60;99.90
285;DHT22;127;48.770;9.212;2023-01-23T06:07:18;0.50;99.90
285;DHT22;127;48.770;9.212;2023-01-23T06:09:47;0.50;99.90
285;DHT22;127;48.770;9.212;2023-01-23T06:12:16;0.50;99.90
285;DHT22;127;48.770;9.212;2023-01-23T06:14:46;0.50;99.90
285;DHT22;127;48.770;9.212;2023-01-23T06:17:14;0.30;99.90
285;DHT22;127;48.770;9.212;2023-01-23T06:19:43;0.30;1.00
285;DHT22;127;48.770;9.212;2023-01-23T06:22:14;0.40;1.00
285;DHT22;127;48.770;9.212;2023-01-23T06:24:43;0.40;1.00
285;DHT22;127;48.770;9.212;2023-01-23T06:27:11;0.40;1.00
285;DHT22;127;48.770;9.212;2023-01-23T06:29:40;0.40;1.00
285;DHT22;127;48.770;9.212;2023-01-23T06:32:08;0.40;1.00
285;DHT22;127;48.770;9.212;2023-01-23T06:34:37;0.50;1.00
285;DHT22;127;48.770;9.212;2023-01-23T06:37:06;0.40;1.00
285;DHT22;127;48.770;9.212;2023-01-23T06:39:37;0.50;1.00
285;DHT22;127;48.770;9.212;2023-01-23T06:42:06;0.40;1.00
285;DHT22;127;48.770;9.212;2023-01-23T06:44:35;0.30;1.00
285;DHT22;127;48.770;9.212;2023-01-23T06:47:03;0.40;1.00
285;DHT22;127;48.770;9.212;2023-01-23T06:49:32;0.30;1.00
285;DHT22;127;48.770;9.212;2023-01-23T06:52:01;0.40;1.00
285;DHT22;127;48.770;9.212;2023-01-23T06:54:29;0.60;1.00
285;DHT22;127;48.770;9.212;2023-01-23T06:57:01;0.50;1.00
285;DHT22;127;48.770;9.212;2023-01-23T06:59:30;0.60;1.00
285;DHT22;127;48.770;9.212;2023-01-23T07:01:59;0.60;99.90
285;DHT22;127;48.770;9.212;2023-01-23T07:04:28;0.60;99.90
285;DHT22;127;48.770;9.212;2023-01-23T07:06:56;0.60;99.90
285;DHT22;127;48.770;9.212;2023-01-23T07:09:25;0.70;99.90
285;DHT22;127;48.770;9.212;2023-01-23T07:11:54;0.50;99.90
285;DHT22;127;48.770;9.212;2023-01-23T07:14:25;0.50;99.90
285;DHT22;127;48.770;9.212;2023-01-23T07:16:54;0.50;99.90
285;DHT22;127;48.770;9.212;2023-01-23T07:19:22;0.60;99.90
285;DHT22;127;48.770;9.212;2023-01-23T07:21:51;0.60;99.90
285;DHT22;127;48.770;9.212;2023-01-23T07:24:20;0.50;99.90
285;DHT22;127;48.770;9.212;2023-01-23T07:26:48;0.50;99.90
285;DHT22;127;48.770;9.212;2023-01-23T07:29:17;0.60;99.90
285;DHT22;127;48.770;9.212;2023-01-23T07:31:48;0.70;99.90
285;DHT22;127;48.770;9.212;2023-01-23T07:34:17;0.70;99.90
285;DHT22;127;48.770;9.212;2023-01-23T07:36:45;0.80;99.90
285;DHT22;127;48.770;9.212;2023-01-23T07:39:14;0.70;99.90
285;DHT22;127;48.770;9.212;2023-01-23T07:41:43;0.50;99.90
285;DHT22;127;48.770;9.212;2023-01-23T07:44:15;0.50;99.90
285;DHT22;127;48.770;9.212;2023-01-23T07:46:44;0.60;99.90
285;DHT22;127;48.770;9.212;2023-01-23T07:49:15;0.70;99.90
285;DHT22;127;48.770;9.212;2023-01-23T07:51:44;0.60;99.90
285;DHT22;127;48.770;9.212;2023-01-23T07:54:12;0.40;99.90
285;DHT22;127;48.770;9.212;2023-01-23T07:56:41;0.50;99.90
285;DHT22;127;48.770;9.212;2023-01-23T07:59:11;0.50;99.90
285;DHT22;127;48.770;9.212;2023-01-23T08:01:39;0.70;99.90
285;DHT22;127;48.770;9.212;2023-01-23T08:04:08;0.80;99.90
285;DHT22;127;48.770;9.212;2023-01-23T08:06:39;0.70;99.90
285;DHT22;127;48.770;9.212;2023-01-23T08:09:08;0.70;99.90
285;DHT22;127;48.770;9.212;2023-01-23T08:11:37;0.80;99.90
285;DHT22;127;48.770;9.212;2023-01-23T08:14:05;0.90;99.90
285;DHT22;127;48.770;9.212;2023-01-23T08:16:34;1.00;99.90
285;DHT22;127;48.770;9.212;2023-01-23T08:19:05;1.10;99.90
285;DHT22;127;48.770;9.212;2023-01-23T08:21:34;1.20;99.90
285;DHT22;127;48.770;9.212;2023-01-23T08:24:06;1.20;99.90
285;DHT22;127;48.770;9.212;2023-01-23T08:26:35;1.20;99.90
285;DHT22;127;48.770;9.212;2023-01-23T08:29:04;1.20;99.90
285;DHT22;127;48.770;9.212;2023-01-23T08:31:33;1.20;99.90
285;DHT22;127;48.770;9.212;2023-01-23T08:34:02;1.20;99.90
285;DHT22;127;48.770;9.212;2023-01-23T08:36:31;1.20;99.90
285;DHT22;127;48.770;9.212;2023-01-23T08:39:00;1.20;99.90
285;DHT22;127;48.770;9.212;2023-01-23T08:41:31;1.10;99.90
285;DHT22;127;48.770;9.212;2023-01-23T08:44:00;1.10;99.90
285;DHT22;127;48.770;9.212;2023-01-23T08:46:28;1.00;99.90
285;DHT22;127;48.770;9.212;2023-01-23T08:48:57;1.00;99.90
285;DHT22;127;48.770;9.212;2023-01-23T08:51:26;1.00;99.90
285;DHT22;127;48.770;9.212;2023-01-23T08:53:55;1.00;99.90
285;DHT22;127;48.770;9.212;2023-01-23T08:56:24;1.00;99.90
285;DHT22;127;48.770;9.212;2023-01-23T08:58:56;0.90;99.90
285;DHT22;127;48.770;9.212;2023-01-23T09:01:26;0.90;99.90
285;DHT22;127;48.770;9.212;2023-01-23T09:03:55;1.00;99.90
285;DHT22;127;48.770;9.212;2023-01-23T09:06:24;1.10;99.90
285;DHT22;127;48.770;9.212;2023-01-23T09:08:53;1.10;99.90
285;DHT22;127;48.770;9.212;2023-01-23T09:11:22;1.20;99.90
285;DHT22;127;48.770;9.212;2023-01-23T09:13:50;1.20;99.90
285;DHT22;127;48.770;9.212;2023-01-23T09:16:21;1.20;99.90
285;DHT22;127;48.770;9.212;2023-01-23T09:18:50;1.30;99.90
285;DHT22;127;48.770;9.212;2023-01-23T09:21:19;1.40;99.90
285;DHT22;127;48.770;9.212;2023-01-23T09:23:47;1.50;99.90
285;DHT22;127;48.770;9.212;2023-01-23T09:26:16;1.70;99.90
285;DHT22;127;48.770;9.212;2023-01-23T09:28:44;1.90;99.90
285;DHT22;127;48.770;9.212;2023-01-23T09:31:13;2.00;99.90
285;DHT22;127;48.770;9.212;2023-01-23T09:33:46;2.00;99.90
285;DHT22;127;48.770;9.212;2023-01-23T09:36:15;2.00;99.90
285;DHT22;127;48.770;9.212;2023-01-23T09:38:46;1.50;99.90
285;DHT22;127;48.770;9.212;2023-01-23T09:41:16;1.40;99.90
285;DHT22;127;48.770;9.212;2023-01-23T09:43:52;1.50;99.90
285;DHT22;127;48.770;9.212;2023-01-23T09:46:27;1.40;99.90
285;DHT22;127;48.770;9.212;2023-01-23T09:49:02;1.40;99.90
285;DHT22;127;48.770;9.212;2023-01-23T09:51:43;1.50;99.90
285;DHT22;127;48.770;9.212;2023-01-23T09:54:21;1.60;99.90
285;DHT22;127;48.770;9.212;2023-01-23T09:56:55;1.70;99.90
285;DHT22;127;48.770;9.212;2023-01-23T09:59:31;1.60;99.90
285;DHT22;127;48.770;9.212;2023-01-23T10:02:01;1.30;99.90
285;DHT22;127;48.770;9.212;2023-01-23T10:04:33;1.20;99.90
285;DHT22;127;48.770;9.212;2023-01-23T10:07:15;1.30;99.90
285;DHT22;127;48.770;9.212;2023-01-23T10:09:55;1.40;99.90
285;DHT22;127;48.770;9.212;2023-01-23T10:12:38;1.60;99.90
285;DHT22;127;48.770;9.212;2023-01-23T10:15:19;1.80;99.90
285;DHT22;127;48.770;9.212;2023-01-23T10:17:56;1.60;99.90
285;DHT22;127;48.770;9.212;2023-01-23T10:20:47;1.70;99.90
285;DHT22;127;48.770;9.212;2023-01-23T10:23:39;1.80;99.90
285;DHT22;127;48.770;9.212;2023-01-23T10:26:14;1.80;99.90
285;DHT22;127;48.770;9.212;2023-01-23T10:28:43;2.10;99.90
285;DHT22;127;48.770;9.212;2023-01-23T10:31:22;2.00;99.90
285;DHT22;127;48.770;9.212;2023-01-23T10:34:00;1.80;99.90
285;DHT22;127;48.770;9.212;2023-01-23T10:36:37;2.00;99.90
285;DHT22;127;48.770;9.212;2023-01-23T10:39:13;2.00;99.90
285;DHT22;127;48.770;9.212;2023-01-23T10:41:45;2.10;99.90
285;DHT22;127;48.770;9.212;2023-01-23T10:44:15;2.30;99.90
285;DHT22;127;48.770;9.212;2023-01-23T10:46:46;2.10;99.90
285;DHT22;127;48.770;9.212;2023-01-23T10:49:27;1.90;99.90
285;DHT22;127;48.770;9.212;2023-01-23T10:51:59;1.90;99.90
285;DHT22;127;48.770;9.212;2023-01-23T10:54:28;1.80;99.90
285;DHT22;127;48.770;9.212;2023-01-23T10:56:58;2.00;99.90
285;DHT22;127;48.770;9.212;2023-01-23T10:59:33;2.00;99.90
285;DHT22;127;48.770;9.212;2023-01-23T11:02:18;1.90;99.90
285;DHT22;127;48.770;9.212;2023-01-23T11:04:48;1.80;99.90
285;DHT22;127;48.770;9.212;2023-01-23T11:07:22;1.80;99.90
285;DHT22;127;48.770;9.212;2023-01-23T11:09:54;1.70;99.90
285;DHT22;127;48.770;9.212;2023-01-23T11:12:25;1.70;99.90
285;DHT22;127;48.770;9.212;2023-01-23T11:15:15;1.70;99.90
285;DHT22;127;48.770;9.212;2023-01-23T11:17:44;1.70;99.90
285;DHT22;127;48.770;9.212;2023-01-23T11:20:22;1.70;99.90
285;DHT22;127;48.770;9.212;2023-01-23T11:23:11;1.80;99.90
285;DHT22;127;48.770;9.212;2023-01-23T11:25:42;2.10;99.90
285;DHT22;127;48.770;9.212;2023-01-23T11:28:19;2.10;99.90
285;DHT22;127;48.770;9.212;2023-01-23T11:30:50;2.30;99.90
285;DHT22;127;48.770;9.212;2023-01-23T11:33:32;2.30;99.90
285;DHT22;127;48.770;9.212;2023-01-23T11:36:05;2.50;99.90
285;DHT22;127;48.770;9.212;2023-01-23T11:38:40;2.40;99.90
285;DHT22;127;48.770;9.212;2023-01-23T11:41:11;2.30;99.90
285;DHT22;127;48.770;9.212;2023-01-23T11:43:41;2.20;99.90
285;DHT22;127;48.770;9.212;2023-01-23T11:46:26;2.10;99.90
285;DHT22;127;48.770;9.212;2023-01-23T11:49:09;2.30;99.90
285;DHT22;127;48.770;9.212;2023-01-23T11:51:46;2.30;99.90
285;DHT22;127;48.770;9.212;2023-01-23T11:54:41;2.30;99.90
285;DHT22;127;48.770;9.212;2023-01-23T11:57:16;2.30;99.90
285;DHT22;127;48.770;9.212;2023-01-23T12:00:02;2.40;99.90
285;DHT22;127;48.770;9.212;2023-01-23T12:03:01;2.00;99.90
285;DHT22;127;48.770;9.212;2023-01-23T12:05:47;2.00;99.90
285;DHT22;127;48.770;9.212;2023-01-23T12:08:29;2.10;99.90
285;DHT22;127;48.770;9.212;2023-01-23T12:11:10;2.20;99.90
285;DHT22;127;48.770;9.212;2023-01-23T12:13:55;2.20;99.90
285;DHT22;127;48.770;9.212;2023-01-23T12:16:39;2.00;99.90
285;DHT22;127;48.770;9.212;2023-01-23T12:19:24;1.70;99.90
285;DHT22;127;48.770;9.212;2023-01-23T12:22:00;1.80;99.90
285;DHT22;127;48.770;9.212;2023-01-23T12:24:46;2.00;99.90
285;DHT22;127;48.770;9.212;2023-01-23T12:27:28;2.10;99.90
285;DHT22;127;48.770;9.212;2023-01-23T12:30:27;2.40;99.90
285;DHT22;127;48.770;9.212;2023-01-23T12:33:07;2.50;99.90
285;DHT22;127;48.770;9.212;2023-01-23T12:35:49;2.60;99.90
285;DHT22;127;48.770;9.212;2023-01-23T12:38:24;2.70;99.90
285;DHT22;127;48.770;9.212;2023-01-23T12:41:11;2.90;99.90
285;DHT22;127;48.770;9.212;2023-01-23T12:43:48;2.90;99.90
285;DHT22;127;48.770;9.212;2023-01-23T12:46:22;3.00;99.90
285;DHT22;127;48.770;9.212;2023-01-23T12:48:57;3.10;99.90
285;DHT22;127;48.770;9.212;2023-01-23T12:51:32;3.30;99.90
285;DHT22;127;48.770;9.212;2023-01-23T12:54:04;3.30;99.90
285;DHT22;127;48.770;9.212;2023-01-23T12:56:35;3.70;99.90
285;DHT22;127;48.770;9.212;2023-01-23T12:59:15;3.90;99.90
285;DHT22;127;48.770;9.212;2023-01-23T13:01:59;4.10;99.90
285;DHT22;127;48.770;9.212;2023-01-23T13:04:40;3.90;99.90
285;DHT22;127;48.770;9.212;2023-01-23T13:07:23;3.70;99.90
285;DHT22;127;48.770;9.212;2023-01-23T13:10:19;3.60;99.90
285;DHT22;127;48.770;9.212;2023-01-23T13:12:54;3.60;99.90
285;DHT22;127;48.770;9.212;2023-01-23T13:15:33;4.10;99.90
285;DHT22;127;48.770;9.212;2023-01-23T13:18:02;4.30;99.90
285;DHT22;127;48.770;9.212;2023-01-23T13:20:34;4.40;99.90
285;DHT22;127;48.770;9.212;2023-01-23T13:23:26;3.90;99.90
285;DHT22;127;48.770;9.212;2023-01-23T13:26:23;3.90;99.90
285;DHT22;127;48.770;9.212;2023-01-23T13:28:55;3.50;99.90
285;DHT22;127;48.770;9.212;2023-01-23T13:31:33;3.20;99.90
285;DHT22;127;48.770;9.212;2023-01-23T13:34:04;3.30;99.90
285;DHT22;127;48.770;9.212;2023-01-23T13:40:20;3.00;99.90
285;DHT22;127;48.770;9.212;2023-01-23T13:42:49;3.20;99.90
285;DHT22;127;48.770;9.212;2023-01-23T13:45:28;3.20;99.90
285;DHT22;127;48.770;9.212;2023-01-23T13:48:19;3.30;99.90
285;DHT22;127;48.770;9.212;2023-01-23T13:51:10;3.30;99.90
285;DHT22;127;48.770;9.212;2023-01-23T13:53:44;3.40;99.90
285;DHT22;127;48.770;9.212;2023-01-23T13:56:28;3.50;99.90
285;DHT22;127;48.770;9.212;2023-01-23T13:59:22;3.40;99.90
285;DHT22;127;48.770;9.212;2023-01-23T14:01:58;3.30;99.90
285;DHT22;127;48.770;9.212;2023-01-23T14:04:43;3.20;99.90
285;DHT22;127;48.770;9.212;2023-01-23T14:07:29;2.90;99.90
285;DHT22;127;48.770;9.212;2023-01-23T14:10:20;3.00;99.90
285;DHT22;127;48.770;9.212;2023-01-23T14:13:01;2.70;99.90
285;DHT22;127;48.770;9.212;2023-01-23T14:15:30;2.60;99.90
285;DHT22;127;48.770;9.212;2023-01-23T14:18:26;2.80;99.90
285;DHT22;127;48.770;9.212;2023-01-23T14:21:00;2.80;99.90
285;DHT22;127;48.770;9.212;2023-01-23T14:23:34;2.90;99.90
285;DHT22;127;48.770;9.212;2023-01-23T14:26:05;2.90;99.90
285;DHT22;127;48.770;9.212;2023-01-23T14:28:38;2.80;99.90
285;DHT22;127;48.770;9.212;2023-01-23T14:31:19;2.90;99.90
285;DHT22;127;48.770;9.212;2023-01-23T14:33:49;2.90;99.90
285;DHT22;127;48.770;9.212;2023-01-23T14:36:18;2.80;99.90
285;DHT22;127;48.770;9.212;2023-01-23T14:38:48;2.80;99.90
285;DHT22;127;48.770;9.212;2023-01-23T14:41:18;2.80;99.90
285;DHT22;127;48.770;9.212;2023-01-23T14:43:53;2.80;99.90
285;DHT22;127;48.770;9.212;2023-01-23T14:46:32;2.50;99.90
285;DHT22;127;48.770;9.212;2023-01-23T14:49:02;2.50;99.90
285;DHT22;127;48.770;9.212;2023-01-23T14:51:32;2.50;99.90
285;DHT22;127;48.770;9.212;2023-01-23T14:54:03;2.40;99.90
285;DHT22;127;48.770;9.212;2023-01-23T14:56:34;2.40;99.90
285;DHT22;127;48.770;9.212;2023-01-23T14:59:13;2.30;99.90
285;DHT22;127;48.770;9.212;2023-01-23T15:01:52;2.40;99.90
285;DHT22;127;48.770;9.212;2023-01-23T15:04:22;2.30;99.90
285;DHT22;127;48.770;9.212;2023-01-23T15:06:54;2.00;99.90
285;DHT22;127;48.770;9.212;2023-01-23T15:09:26;2.10;99.90
285;DHT22;127;48.770;9.212;2023-01-23T15:12:03;2.20;99.90
285;DHT22;127;48.770;9.212;2023-01-23T15:14:37;2.20;99.90
285;DHT22;127;48.770;9.212;2023-01-23T15:17:12;2.10;99.90
285;DHT22;127;48.770;9.212;2023-01-23T15:19:42;2.00;99.90
285;DHT22;127;48.770;9.212;2023-01-23T15:22:17;2.10;99.90
285;DHT22;127;48.770;9.212;2023-01-23T15:24:47;2.00;99.90
285;DHT22;127;48.770;9.212;2023-01-23T15:27:24;2.00;99.90
285;DHT22;127;48.770;9.212;2023-01-23T15:32:54;1.90;99.90
285;DHT22;127;48.770;9.212;2023-01-23T15:35:23;2.00;99.90
285;DHT22;127;48.770;9.212;2023-01-23T15:37:53;2.00;99.90
285;DHT22;127;48.770;9.212;2023-01-23T15:40:26;1.90;99.90
285;DHT22;127;48.770;9.212;2023-01-23T15:43:00;2.00;99.90
285;DHT22;127;48.770;9.212;2023-01-23T15:45:30;2.00;99.90
285;DHT22;127;48.770;9.212;2023-01-23T15:48:02;2.10;99.90
285;DHT22;127;48.770;9.212;2023-01-23T15:50:30;1.90;99.90
285;DHT22;127;48.770;9.212;2023-01-23T15:52:59;1.80;99.90
285;DHT22;127;48.770;9.212;2023-01-23T15:55:28;1.90;99.90
285;DHT22;127;48.770;9.212;2023-01-23T15:57:57;1.80;99.90
285;DHT22;127;48.770;9.212;2023-01-23T16:00:27;1.80;99.90
285;DHT22;127;48.770;9.212;2023-01-23T16:02:57;1.90;99.90
285;DHT22;127;48.770;9.212;2023-01-23T16:05:30;1.90;99.90
285;DHT22;127;48.770;9.212;2023-01-23T16:08:01;1.80;99.90
285;DHT22;127;48.770;9.212;2023-01-23T16:10:34;1.80;99.90
285;DHT22;127;48.770;9.212;2023-01-23T16:13:04;1.80;99.90
285;DHT22;127;48.770;9.212;2023-01-23T16:15:34;1.60;99.90
285;DHT22;127;48.770;9.212;2023-01-23T16:18:05;1.60;99.90
285;DHT22;127;48.770;9.212;2023-01-23T16:20:38;1.70;99.90
285;DHT22;127;48.770;9.212;2023-01-23T16:23:12;1.60;99.90
285;DHT22;127;48.770;9.212;2023-01-23T16:25:43;1.50;99.90
285;DHT22;127;48.770;9.212;2023-01-23T16:28:12;1.60;99.90
285;DHT22;127;48.770;9.212;2023-01-23T16:30:41;1.70;99.90
285;DHT22;127;48.770;9.212;2023-01-23T16:33:10;1.70;99.90
285;DHT22;127;48.770;9.212;2023-01-23T16:35:42;1.80;99.90
285;DHT22;127;48.770;9.212;2023-01-23T16:38:19;1.70;99.90
285;DHT22;127;48.770;9.212;2023-01-23T16:40:49;1.70;99.90
285;DHT22;127;48.770;9.212;2023-01-23T16:43:18;1.70;99.90
285;DHT22;127;48.770;9.212;2023-01-23T16:45:46;1.80;99.90
285;DHT22;127;48.770;9.212;2023-01-23T16:48:16;1.80;99.90
285;DHT22;127;48.770;9.212;2023-01-23T16:50:49;1.80;99.90
285;DHT22;127;48.770;9.212;2023-01-23T16:53:23;1.90;99.90
285;DHT22;127;48.770;9.212;2023-01-23T16:55:53;1.80;99.90
285;DHT22;127;48.770;9.212;2023-01-23T16:58:24;1.90;99.90
285;DHT22;127;48.770;9.212;2023-01-23T17:00:57;1.80;99.90
285;DHT22;127;48.770;9.212;2023-01-23T17:03:31;1.80;99.90
285;DHT22;127;48.770;9.212;2023-01-23T17:06:04;1.80;99.90
285;DHT22;127;48.770;9.212;2023-01-23T17:08:32;1.90;99.90
285;DHT22;127;48.770;9.212;2023-01-23T17:11:02;2.00;99.90
285;DHT22;127;48.770;9.212;2023-01-23T17:13:32;2.00;99.90
285;DHT22;127;48.770;9.212;2023-01-23T17:16:05;2.00;99.90
285;DHT22;127;48.770;9.212;2023-01-23T17:18:35;2.10;99.90
285;DHT22;127;48.770;9.212;2023-01-23T17:21:14;2.10;99.90
285;DHT22;127;48.770;9.212;2023-01-23T17:23:45;2.00;99.90
285;DHT22;127;48.770;9.212;2023-01-23T17:26:16;2.00;99.90
285;DHT22;127;48.770;9.212;2023-01-23T17:28:45;2.00;99.90
285;DHT22;127;48.770;9.212;2023-01-23T17:31:17;2.00;99.90
285;DHT22;127;48.770;9.212;2023-01-23T17:33:48;1.90;99.90
285;DHT22;127;48.770;9.212;2023-01-23T17:36:19;1.90;99.90